Airfield :
LOGIN :

Register | Disclaimer

   EN    FR    IT 

 










Legend :    VFR   Marginal VFR   IFR   Intensive IFR   Very Intensive IFR
Visi :
Ceiling :
>= 8 km
>= 3000ft
5 to 8 km
1000 to 3000 ft
1500m to 5 km
500 to 1000 ft
800 to 1500m
200 to 500 ft
< 800m
< 200 ft
Symbols :   Thunderstorms  Fog  Heavy snow  Heavy precipitations  Wind > 20 kt
SIGMETs :     Misc.  Thunderstorms  Icing  Turbulence  Mountain Waves  Volcanic Ashes






- Airport Elevation : 87 ft
- IATA code : FSC


LFKF - Figari

CURRENT METAR :
  • 081900Z AUTO 06012KT 6000 -RA FEW012/// SCT017/// BKN026/// ///TCU 12/10 Q1008 TEMPO 3000 RA SCT035TCU FEW040CB

EXPIRED METARs :
  • 081830Z AUTO 07010KT 7000 -RA SCT015/// SCT021/// BKN027/// ///CB 12/11 Q1008 TEMPO 3000 RA BKN008
  • 081800Z AUTO 07009KT 040V100 8000 -RA BKN016/// BKN025/// BKN032/// ///CB 12/11 Q1008 TEMPO 3000 RA BKN008
  • 081730Z AUTO 07008KT 040V100 7000 -RA SCT018/// BKN024/// BKN031/// ///CB 12/11 Q1008 TEMPO 3000 RA BKN008
  • 081700Z AUTO 06010KT 7000 -RA FEW016/// BKN022/// OVC029/// ///TCU 12/11 Q1008 TEMPO 3000 RA SCT035TCU FEW040CB
  • 081630Z AUTO 07008KT 040V100 5000 -RA BR SCT013/// BKN019/// OVC030/// ///TCU 12/11 Q1008 TEMPO RA SCT035TCU FEW040CB
  • 081600Z AUTO 07008KT 5000 RA BR BKN017/// BKN023/// BKN030/// ///TCU 12/11 Q1008 TEMPO SCT035TCU FEW040CB
  • 081530Z AUTO 07007KT 040V120 7000 2500 -RA FEW011/// SCT039/// BKN056/// ///CB 12/10 Q1008 TEMPO 3000 RA BKN008
  • 081500Z AUTO 06013KT 030V090 7000 1900 RA BKN016/// BKN023/// BKN036/// ///CB 12/11 Q1008 TEMPO 3000 RA BKN008
  • 081430Z AUTO 06012KT 030V090 8000 RA BKN020/// BKN027/// BKN040/// ///CB 12/11 Q1008 TEMPO 3000 RA BKN012
  • 081400Z AUTO 05013KT 9999 -RA BKN026/// BKN047/// BKN058/// ///CB 13/11 Q1008 TEMPO 3000 RA BKN012

TAF TAF LFKF
Valid from the 08 at 15:00 until the 09 at 15:00 UTC


081400Z 0815/0915 06014KT 9999 BKN030 BKN060
TEMPO 0815/0905 SCT035TCU FEW040CB
PROB40
TEMPO 0815/0905 3000 RA BKN008
BECMG 0908/0910 24006KT



MET'MAP, your aeronautical weather chart ! - Copyright ORBIFLY December 2007 - Disclaimer

ORBIFLY MET'MAP TEAM :

Programming & Development : Alexandra Zaïnal
Original concept : Baudouin d'Aumeries
Technical & hardware support : Manuel Goepfert
Assistance : Marc-Olivier Méhu




SOURCES & CREDITS :

   NOAA